createdAt,value
2018-08-08T00:01:02.834Z,4.13
2018-08-08T00:03:30.717Z,4.20
2018-08-08T00:05:58.578Z,4.40
2018-08-08T00:08:26.450Z,4.37
2018-08-08T00:10:54.338Z,4.33
2018-08-08T00:13:22.245Z,4.13
2018-08-08T00:15:50.131Z,4.13
2018-08-08T00:18:17.933Z,4.23
2018-08-08T00:20:46.181Z,4.37
2018-08-08T00:23:14.059Z,4.20
2018-08-08T00:25:41.973Z,4.23
2018-08-08T00:28:09.909Z,4.40
2018-08-08T00:30:37.799Z,4.37
2018-08-08T00:33:05.681Z,4.50
2018-08-08T00:35:33.596Z,4.93
2018-08-08T00:38:01.497Z,4.50
2018-08-08T00:40:29.518Z,4.77
2018-08-08T00:42:57.391Z,4.40
2018-08-08T00:45:25.250Z,4.80
2018-08-08T00:47:53.155Z,4.73
2018-08-08T00:50:21.026Z,4.63
2018-08-08T00:52:48.929Z,4.17
2018-08-08T00:55:16.763Z,4.47
2018-08-08T00:57:44.665Z,5.40
2018-08-08T01:00:13.780Z,4.70
2018-08-08T01:02:41.685Z,4.80
2018-08-08T01:05:11.057Z,4.80
2018-08-08T01:07:39.130Z,4.90
2018-08-08T01:10:07.730Z,4.60
2018-08-08T01:12:35.586Z,4.90
2018-08-08T01:15:04.168Z,4.50
2018-08-08T01:17:32.057Z,4.67
2018-08-08T01:19:59.959Z,5.00
2018-08-08T01:22:27.866Z,5.00
2018-08-08T01:24:55.725Z,4.80
2018-08-08T01:27:23.613Z,5.27
2018-08-08T01:29:51.520Z,5.00
2018-08-08T01:32:19.427Z,4.73
2018-08-08T01:34:47.343Z,4.70
2018-08-08T01:37:15.205Z,4.83
2018-08-08T01:39:43.138Z,5.03
2018-08-08T01:42:11.031Z,5.57
2018-08-08T01:44:38.910Z,4.63
2018-08-08T01:47:06.885Z,5.07
2018-08-08T01:49:34.725Z,4.90
2018-08-08T01:52:02.548Z,5.17
2018-08-08T01:54:30.478Z,5.47
2018-08-08T01:56:58.335Z,4.97
2018-08-08T01:59:26.197Z,5.10
2018-08-08T02:01:54.063Z,5.40
2018-08-08T02:04:21.901Z,5.13
2018-08-08T02:06:49.772Z,5.27
2018-08-08T02:09:17.649Z,4.87
2018-08-08T02:11:45.556Z,5.43
2018-08-08T02:14:13.458Z,5.43
2018-08-08T02:16:41.378Z,5.17
2018-08-08T02:19:09.283Z,5.13
2018-08-08T02:21:37.134Z,5.60
2018-08-08T02:24:04.991Z,5.70
2018-08-08T02:26:32.869Z,5.20
2018-08-08T02:29:00.883Z,4.90
2018-08-08T02:31:28.688Z,5.80
2018-08-08T02:33:56.609Z,5.60
2018-08-08T02:36:24.473Z,4.70
2018-08-08T02:38:52.331Z,5.67
2018-08-08T02:41:20.203Z,5.53
2018-08-08T02:43:48.136Z,5.80
2018-08-08T02:46:16.014Z,5.47
2018-08-08T02:48:43.930Z,5.67
2018-08-08T02:51:11.818Z,5.13
2018-08-08T02:53:39.677Z,5.67
2018-08-08T02:56:07.559Z,5.77
2018-08-08T02:58:35.455Z,5.60
2018-08-08T03:01:03.385Z,5.40
2018-08-08T03:03:31.448Z,5.50
2018-08-08T03:05:59.299Z,5.77
2018-08-08T03:08:27.262Z,5.80
2018-08-08T03:10:55.114Z,5.60
2018-08-08T03:13:23.042Z,6.00
2018-08-08T03:15:50.965Z,5.50
2018-08-08T03:18:18.847Z,5.70
2018-08-08T03:20:47.466Z,5.50
2018-08-08T03:23:15.320Z,5.30
2018-08-08T03:25:43.238Z,5.70
2018-08-08T03:28:11.346Z,5.57
2018-08-08T03:30:39.205Z,6.00
2018-08-08T03:33:07.105Z,5.97
2018-08-08T03:35:34.970Z,5.90
2018-08-08T03:38:03.119Z,5.40
2018-08-08T03:40:31.039Z,5.77
2018-08-08T03:42:58.893Z,6.43
2018-08-08T03:45:26.828Z,5.30
2018-08-08T03:47:54.695Z,5.57
2018-08-08T03:50:22.611Z,6.30
2018-08-08T03:52:50.539Z,5.80
2018-08-08T03:55:18.427Z,6.47
2018-08-08T03:57:46.366Z,6.20
2018-08-08T04:00:17.345Z,5.97
2018-08-08T04:02:45.434Z,5.63
2018-08-08T04:05:13.405Z,6.17
2018-08-08T04:07:41.309Z,6.40
2018-08-08T04:10:09.943Z,6.00
2018-08-08T04:12:37.868Z,5.57
2018-08-08T04:15:07.964Z,5.80
2018-08-08T04:17:35.807Z,5.93
2018-08-08T04:20:04.169Z,6.57
2018-08-08T04:22:32.140Z,6.20
2018-08-08T04:25:00.010Z,6.00
2018-08-08T04:27:27.945Z,6.03
2018-08-08T04:29:55.801Z,6.80
2018-08-08T04:32:23.685Z,6.77
2018-08-08T04:34:51.542Z,6.37
2018-08-08T04:37:19.497Z,6.10
2018-08-08T04:39:47.477Z,6.70
2018-08-08T04:42:15.323Z,6.47
2018-08-08T04:44:43.178Z,6.40
2018-08-08T04:47:11.083Z,6.80
2018-08-08T04:49:38.900Z,6.33
2018-08-08T04:52:06.821Z,6.43
2018-08-08T04:54:34.673Z,6.60
2018-08-08T04:57:02.723Z,5.77
2018-08-08T04:59:30.545Z,6.67
2018-08-08T05:01:58.562Z,6.33
2018-08-08T05:04:26.414Z,6.17
2018-08-08T05:06:54.318Z,6.53
2018-08-08T05:09:22.142Z,7.20
2018-08-08T05:11:49.948Z,7.70
2018-08-08T05:14:17.878Z,6.87
2018-08-08T05:16:45.762Z,6.67
2018-08-08T05:19:13.650Z,6.73
2018-08-08T05:21:41.538Z,6.77
2018-08-08T05:24:09.449Z,7.13
2018-08-08T05:26:37.338Z,6.93
2018-08-08T05:29:05.365Z,6.47
2018-08-08T05:31:33.317Z,7.60
2018-08-08T05:34:01.267Z,7.60
2018-08-08T05:36:29.120Z,7.30
2018-08-08T05:38:56.980Z,7.20
2018-08-08T05:41:24.880Z,6.47
2018-08-08T05:43:52.827Z,7.17
2018-08-08T05:46:21.200Z,7.63
2018-08-08T05:48:49.060Z,6.90
2018-08-08T05:51:16.958Z,7.20
2018-08-08T05:53:44.842Z,6.87
2018-08-08T05:56:12.656Z,7.40
2018-08-08T05:58:40.522Z,7.87
2018-08-08T06:01:08.390Z,6.77
2018-08-08T06:03:36.251Z,7.77
2018-08-08T06:06:04.224Z,7.67
2018-08-08T06:08:32.421Z,7.40
2018-08-08T06:11:00.309Z,7.47
2018-08-08T06:13:28.267Z,7.47
2018-08-08T06:15:56.109Z,7.40
2018-08-08T06:18:24.048Z,7.43
2018-08-08T06:20:51.944Z,8.27
2018-08-08T06:23:19.807Z,7.77
2018-08-08T06:25:47.709Z,7.70
2018-08-08T06:28:15.633Z,8.03
2018-08-08T06:30:43.553Z,7.80
2018-08-08T06:33:11.429Z,7.70
2018-08-08T06:35:39.285Z,7.37
2018-08-08T06:38:07.279Z,8.30
2018-08-08T06:40:35.114Z,7.90
2018-08-08T06:43:02.986Z,7.83
2018-08-08T06:45:30.875Z,7.47
2018-08-08T06:47:58.749Z,7.50
2018-08-08T06:50:26.602Z,7.80
2018-08-08T06:52:54.595Z,7.40
2018-08-08T06:55:22.505Z,7.90
2018-08-08T06:57:50.349Z,7.90
2018-08-08T07:00:20.352Z,8.20
2018-08-08T07:02:48.340Z,8.60
2018-08-08T07:05:17.328Z,7.60
2018-08-08T07:07:45.525Z,7.43
2018-08-08T07:10:13.381Z,8.50
2018-08-08T07:12:41.343Z,8.57
2018-08-08T07:15:11.135Z,8.10
2018-08-08T07:17:39.271Z,7.97
2018-08-08T07:20:07.833Z,8.87
2018-08-08T07:22:35.681Z,8.90
2018-08-08T07:25:03.672Z,7.83
2018-08-08T07:27:31.577Z,8.00
2018-08-08T07:29:59.657Z,8.37
2018-08-08T07:32:27.554Z,8.57
2018-08-08T07:34:55.470Z,8.57
2018-08-08T07:37:23.367Z,8.30
2018-08-08T07:39:51.293Z,9.13
2018-08-08T07:42:19.144Z,9.80
2018-08-08T07:44:46.980Z,9.00
2018-08-08T07:47:14.865Z,9.07
2018-08-08T07:49:42.817Z,9.20
2018-08-08T07:52:10.776Z,8.60
2018-08-08T07:54:38.672Z,8.83
2018-08-08T07:57:06.551Z,9.30
2018-08-08T07:59:34.465Z,9.13
2018-08-08T08:02:02.657Z,9.17
2018-08-08T08:04:30.599Z,9.13
2018-08-08T08:06:58.507Z,9.90
2018-08-08T08:09:26.430Z,9.10
2018-08-08T08:11:54.333Z,9.70
2018-08-08T08:14:22.234Z,9.93
2018-08-08T08:16:50.159Z,9.87
2018-08-08T08:19:18.023Z,9.90
2018-08-08T08:21:45.919Z,10.07
2018-08-08T08:24:13.845Z,9.87
2018-08-08T08:26:41.732Z,10.37
2018-08-08T08:29:09.603Z,11.00
2018-08-08T08:31:37.491Z,10.50
2018-08-08T08:34:05.440Z,10.57
2018-08-08T08:36:33.890Z,10.47
2018-08-08T08:39:01.831Z,9.90
2018-08-08T08:41:29.718Z,10.10
2018-08-08T08:43:57.597Z,10.50
2018-08-08T08:46:25.565Z,10.53
2018-08-08T08:48:53.454Z,10.20
2018-08-08T08:51:21.325Z,10.03
2018-08-08T08:53:49.271Z,10.80
2018-08-08T08:56:17.203Z,10.17
2018-08-08T08:58:45.140Z,10.63
2018-08-08T09:01:12.981Z,11.43
2018-08-08T09:03:40.906Z,10.80
2018-08-08T09:06:09.019Z,10.60
2018-08-08T09:08:36.888Z,11.07
2018-08-08T09:11:04.819Z,10.53
2018-08-08T09:13:32.681Z,11.30
2018-08-08T09:16:00.573Z,10.97
2018-08-08T09:18:28.493Z,10.47
2018-08-08T09:20:57.392Z,11.10
2018-08-08T09:23:25.283Z,10.80
2018-08-08T09:25:53.290Z,11.13
2018-08-08T09:28:21.121Z,11.67
2018-08-08T09:30:49.044Z,11.90
2018-08-08T09:33:22.449Z,11.40
2018-08-08T09:35:50.314Z,10.80
2018-08-08T09:38:18.221Z,11.50
2018-08-08T09:40:46.082Z,11.70
2018-08-08T09:43:13.938Z,10.77
2018-08-08T09:45:41.793Z,9.30
2018-08-08T09:48:09.637Z,10.40
2018-08-08T09:50:37.550Z,10.20
2018-08-08T09:53:05.414Z,11.40
2018-08-08T09:55:33.288Z,9.70
2018-08-08T09:58:01.235Z,9.73
2018-08-08T10:00:34.586Z,9.07
2018-08-08T10:03:08.021Z,9.40
2018-08-08T10:05:35.889Z,10.00
2018-08-08T10:08:03.771Z,9.57
2018-08-08T10:10:31.692Z,9.67
2018-08-08T10:12:59.535Z,9.90
2018-08-08T10:15:27.388Z,8.93
2018-08-08T10:17:55.277Z,8.80
2018-08-08T10:20:23.229Z,8.40
2018-08-08T10:22:51.107Z,7.73
2018-08-08T10:25:18.977Z,7.90
2018-08-08T10:27:46.878Z,7.80
2018-08-08T10:30:14.770Z,7.70
2018-08-08T10:32:42.624Z,7.83
2018-08-08T10:35:11.788Z,7.90
2018-08-08T10:37:40.544Z,8.40
2018-08-08T10:40:09.493Z,7.60
2018-08-08T10:42:37.402Z,6.67
2018-08-08T10:45:05.528Z,6.40
2018-08-08T10:47:33.408Z,6.60
2018-08-08T10:50:01.450Z,7.00
2018-08-08T10:52:29.304Z,6.30
2018-08-08T10:54:57.214Z,6.60
2018-08-08T10:57:25.118Z,7.10
2018-08-08T10:59:52.965Z,7.00
2018-08-08T11:02:20.915Z,6.67
2018-08-08T11:04:48.807Z,6.37
2018-08-08T11:07:16.694Z,6.90
2018-08-08T11:09:44.572Z,6.47
2018-08-08T11:12:12.551Z,6.80
2018-08-08T11:14:40.624Z,6.40
2018-08-08T11:17:08.469Z,6.43
2018-08-08T11:19:36.335Z,6.27
2018-08-08T11:22:04.174Z,6.63
2018-08-08T11:24:32.012Z,6.57
2018-08-08T11:26:59.906Z,6.40
2018-08-08T11:29:27.782Z,7.40
2018-08-08T11:31:56.195Z,6.47
2018-08-08T11:34:24.081Z,7.27
2018-08-08T11:36:52.023Z,7.40
2018-08-08T11:39:19.846Z,6.80
2018-08-08T11:41:47.725Z,6.87
2018-08-08T11:44:15.505Z,6.67
2018-08-08T11:46:43.497Z,6.60
2018-08-08T11:49:11.360Z,6.60
2018-08-08T11:51:39.301Z,6.97
2018-08-08T11:54:07.192Z,7.40
2018-08-08T11:56:35.010Z,6.40
2018-08-08T11:59:02.887Z,6.40
2018-08-08T12:01:30.684Z,6.90
2018-08-08T12:03:58.566Z,6.37
2018-08-08T12:06:26.410Z,6.93
2018-08-08T12:08:54.335Z,6.37
2018-08-08T12:11:22.249Z,6.90
2018-08-08T12:13:50.058Z,6.60
2018-08-08T12:16:18.050Z,6.73
2018-08-08T12:18:45.999Z,7.00
2018-08-08T12:21:13.921Z,6.40
2018-08-08T12:23:41.830Z,6.50
2018-08-08T12:26:09.676Z,6.43
2018-08-08T12:28:37.647Z,6.63
2018-08-08T12:31:05.449Z,6.10
2018-08-08T12:33:33.305Z,6.10
2018-08-08T12:36:01.193Z,7.00
2018-08-08T12:38:29.131Z,6.72
2018-08-08T12:40:57.061Z,6.30
2018-08-08T12:43:24.933Z,6.58
2018-08-08T12:45:52.822Z,6.50
2018-08-08T12:48:20.697Z,6.30
2018-08-08T12:50:48.709Z,6.28
2018-08-08T12:53:16.606Z,6.17
2018-08-08T12:55:44.489Z,6.33
2018-08-08T12:58:12.482Z,6.40
2018-08-08T13:00:40.310Z,6.20
2018-08-08T13:03:08.179Z,5.90
2018-08-08T13:12:57.368Z,6.03
2018-08-08T15:37:40.120Z,6.80
2018-08-08T15:40:08.660Z,6.70
2018-08-08T15:42:36.453Z,6.37
2018-08-08T15:45:05.389Z,6.53
2018-08-08T15:47:33.209Z,6.47
2018-08-08T15:50:01.108Z,6.10
2018-08-08T15:52:28.944Z,6.27
2018-08-08T15:54:56.831Z,7.03
2018-08-08T15:57:24.706Z,7.23
2018-08-08T15:59:52.636Z,7.07
2018-08-08T16:02:20.514Z,6.50
2018-08-08T16:04:48.322Z,7.00
2018-08-08T16:07:16.193Z,6.77
2018-08-08T16:09:44.071Z,6.47
2018-08-08T16:12:12.838Z,6.60
2018-08-08T16:14:40.734Z,6.23
2018-08-08T16:17:08.570Z,6.35
2018-08-08T16:19:36.474Z,6.17
2018-08-08T16:22:04.399Z,6.53
2018-08-08T16:24:32.218Z,7.13
2018-08-08T16:27:00.195Z,7.60
2018-08-08T16:29:28.106Z,6.53
2018-08-08T16:31:56.003Z,7.17
2018-08-08T16:34:23.870Z,7.43
2018-08-08T16:36:51.755Z,6.63
2018-08-08T16:39:19.589Z,6.67
2018-08-08T16:41:47.490Z,7.20
2018-08-08T16:44:15.415Z,7.00
2018-08-08T16:46:43.219Z,7.30
2018-08-08T16:49:11.071Z,6.93
2018-08-08T16:51:38.954Z,6.97
2018-08-08T16:54:06.803Z,7.63
2018-08-08T16:56:34.645Z,7.30
2018-08-08T16:59:02.509Z,7.63
2018-08-08T17:01:30.413Z,6.77
2018-08-08T17:03:58.249Z,7.43
2018-08-08T17:06:26.089Z,7.10
2018-08-08T17:08:53.962Z,7.10
2018-08-08T17:11:21.886Z,7.40
2018-08-08T17:13:49.765Z,7.97
2018-08-08T17:16:17.649Z,7.20
2018-08-08T17:18:45.462Z,7.85
2018-08-08T17:21:13.381Z,7.30
2018-08-08T17:23:41.210Z,7.70
2018-08-08T17:26:09.118Z,7.22
2018-08-08T17:28:37.042Z,7.47
2018-08-08T17:31:04.896Z,7.95
2018-08-08T17:33:32.788Z,6.80
2018-08-08T17:36:00.725Z,7.33
2018-08-08T17:38:28.628Z,6.70
2018-08-08T17:40:56.505Z,7.50
2018-08-08T17:43:25.098Z,6.93
2018-08-08T17:45:52.994Z,6.73
2018-08-08T17:48:20.848Z,7.30
2018-08-08T17:50:48.674Z,7.40
2018-08-08T17:53:16.513Z,7.50
2018-08-08T17:55:44.550Z,7.20
2018-08-08T17:58:12.359Z,7.50
2018-08-08T18:00:40.258Z,7.87
2018-08-08T18:03:08.106Z,7.70
2018-08-08T18:05:36.284Z,8.30
2018-08-08T18:08:04.189Z,7.93
2018-08-08T18:10:32.075Z,8.10
2018-08-08T18:12:59.954Z,7.83
2018-08-08T18:15:27.885Z,8.23
2018-08-08T18:17:55.800Z,8.00
2018-08-08T18:20:23.685Z,8.00
2018-08-08T18:22:51.611Z,7.50
2018-08-08T18:25:19.644Z,8.47
2018-08-08T18:27:47.577Z,8.13
2018-08-08T18:30:15.488Z,8.80
2018-08-08T18:32:43.315Z,8.87
2018-08-08T18:35:11.211Z,8.80
2018-08-08T18:37:39.157Z,8.80
2018-08-08T18:40:07.084Z,9.60
2018-08-08T18:42:34.931Z,9.00
2018-08-08T18:45:02.875Z,9.63
2018-08-08T18:47:30.795Z,8.60
2018-08-08T18:49:58.708Z,9.13
2018-08-08T18:52:26.687Z,8.40
2018-08-08T18:54:54.596Z,9.00
2018-08-08T18:57:22.567Z,8.60
2018-08-08T18:59:51.178Z,9.33
2018-08-08T19:02:19.072Z,9.00
2018-08-08T19:04:46.934Z,9.40
2018-08-08T19:07:14.980Z,9.90
2018-08-08T19:09:42.867Z,10.10
2018-08-08T19:12:10.783Z,9.40
2018-08-08T19:14:38.767Z,9.60
2018-08-08T19:17:06.792Z,10.10
2018-08-08T19:19:34.610Z,10.17
2018-08-08T19:22:02.502Z,9.67
2018-08-08T19:24:30.458Z,10.53
2018-08-08T19:26:58.389Z,11.13
2018-08-08T19:32:30.107Z,11.97
2018-08-08T19:34:57.986Z,13.33
2018-08-08T19:37:25.906Z,13.93
2018-08-08T19:39:53.760Z,14.00
2018-08-08T19:42:21.632Z,14.70
2018-08-08T19:44:49.510Z,13.23
2018-08-08T19:50:49.413Z,14.80
2018-08-08T19:53:17.313Z,13.57
2018-08-08T19:55:45.524Z,13.63
2018-08-08T19:58:13.398Z,15.50
2018-08-08T20:00:41.392Z,19.20
2018-08-08T20:03:09.287Z,17.60
2018-08-08T20:05:37.414Z,17.33
2018-08-08T20:08:05.377Z,18.80
2018-08-08T20:10:33.198Z,18.37
2018-08-08T20:13:01.203Z,19.13
2018-08-08T20:15:29.189Z,19.10
2018-08-08T20:17:57.099Z,17.60
2018-08-08T20:20:25.149Z,16.70
2018-08-08T20:22:53.112Z,15.47
2018-08-08T20:25:21.013Z,17.13
2018-08-08T20:27:49.141Z,17.23
2018-08-08T20:30:16.992Z,16.80
2018-08-08T20:32:44.940Z,17.00
2018-08-08T20:35:12.882Z,16.80
2018-08-08T20:41:11.426Z,16.40
2018-08-08T20:43:39.333Z,15.35
2018-08-08T20:46:07.239Z,17.00
2018-08-08T21:08:12.913Z,16.30
2018-08-08T21:13:08.022Z,15.80
2018-08-08T21:15:36.067Z,17.17
2018-08-08T21:18:04.077Z,15.63
2018-08-08T21:20:31.962Z,16.33
2018-08-08T21:22:59.871Z,16.83
2018-08-08T21:25:27.921Z,14.93
2018-08-08T21:27:55.841Z,15.20
2018-08-08T21:30:23.853Z,18.30
2018-08-08T21:32:51.689Z,18.00
2018-08-08T21:35:19.592Z,16.00
2018-08-08T21:37:47.411Z,16.63
2018-08-08T21:40:15.307Z,17.00
2018-08-08T21:42:43.187Z,17.33
2018-08-08T21:45:11.083Z,17.00
2018-08-08T21:47:38.968Z,18.27
2018-08-08T21:50:07.550Z,19.90
2018-08-08T21:52:35.472Z,21.00
2018-08-08T21:55:09.182Z,19.73
2018-08-08T21:57:42.776Z,18.60
2018-08-08T22:00:16.484Z,18.50
2018-08-08T22:02:50.162Z,17.60
2018-08-08T22:05:23.902Z,18.90
2018-08-08T22:07:57.470Z,17.37
2018-08-08T22:10:31.135Z,17.30
2018-08-08T22:13:04.816Z,18.40
2018-08-08T22:15:38.607Z,17.93
2018-08-08T22:18:12.187Z,18.23
2018-08-08T22:20:40.041Z,19.13
2018-08-08T22:30:12.203Z,17.40
2018-08-08T22:32:40.218Z,17.80
2018-08-08T22:35:08.170Z,17.97
2018-08-08T22:37:36.011Z,17.40
2018-08-08T22:40:04.265Z,14.77
2018-08-08T22:42:32.120Z,14.40
2018-08-08T22:45:00.087Z,15.20
2018-08-08T22:47:28.003Z,15.37
2018-08-08T22:49:55.844Z,14.07
2018-08-08T22:52:23.668Z,13.87
2018-08-08T22:54:51.567Z,15.53
2018-08-08T22:57:19.388Z,14.50
2018-08-08T22:59:47.347Z,13.90
2018-08-08T23:02:15.173Z,14.13
2018-08-08T23:04:43.819Z,13.17
2018-08-08T23:07:11.813Z,11.80
2018-08-08T23:09:39.653Z,11.60
2018-08-08T23:12:07.580Z,12.10
2018-08-08T23:14:35.485Z,12.30
2018-08-08T23:17:03.378Z,10.83
2018-08-08T23:19:31.362Z,11.70
2018-08-08T23:21:59.267Z,11.83
2018-08-08T23:24:27.166Z,11.83
2018-08-08T23:26:55.269Z,11.77
2018-08-08T23:29:23.176Z,13.80
2018-08-08T23:31:51.294Z,14.43
2018-08-08T23:34:19.332Z,12.77
2018-08-08T23:36:47.279Z,13.13
2018-08-08T23:39:15.178Z,11.63
2018-08-08T23:41:43.029Z,13.67
2018-08-08T23:44:10.983Z,14.47
2018-08-08T23:46:39.054Z,14.03
2018-08-08T23:49:07.009Z,14.87
2018-08-08T23:51:34.881Z,14.30
2018-08-08T23:54:02.750Z,15.60
2018-08-08T23:56:30.678Z,13.90
2018-08-08T23:58:58.559Z,14.83
